Terminal Aerodrome Forecast
Issued by NWS

Home | Current Version | Previous Version | Text Only | Print | Product List | Glossary On
Versions: 1 2 3 4 5 6 7 8 9 10 11 12 13 14 15 16
000
FTUS43 KGRB 301400 AAB
TAFMTW
TAF AMD
KMTW 301406Z 3014/0112 02008G15KT P6SM BKN028 BKN050
      TEMPO 3014/3016 BKN018
     FM301600 01010G20KT P6SM SCT030 BKN070
     FM302300 03007KT P6SM SCT070
     FM010400 34004KT P6SM SKC=

USA.gov is the U.S. government's official web portal to all federal, state and local government web resources and services.